Aérodrome :
LOGIN :

S'inscrire | Disclaimer

   EN    FR    IT 

 










Légende :    VFR   VFR Marginal   IFR   IFR Intensif   IFR Très Intensif
Visi : 
Plafond : 
>= 8 km
>= 3000ft
5 à 8 km
1000 à 3000 ft
1500m à 5 km
500 à 1000 ft
800 à 1500m
200 à 500 ft
< 800m
< 200 ft
Symboles :   Orages  Brouillard  Fortes neiges  Fortes précipitations  Vent > 20 kt
SIGMETs :   Divers  Orages  Givrage  Turbulence  Onde Orograph.  Cendres Volcan.







- Altitude de l'aérodrome : 313 ft
- Voir les cartes d'approche


LFQA - Reims-Prunay

DERNIER METAR :
  • 171430Z AUTO 32011KT 280V010 CAVOK 24/10 Q1019

METARs EXPIRÉS :
  • 171400Z AUTO 34012KT 310V020 CAVOK 24/10 Q1019
  • 171330Z AUTO 34012KT CAVOK 23/10 Q1019
  • 171300Z AUTO 33011KT 9999 FEW046 24/11 Q1019
  • 171230Z AUTO 33013KT 300V020 CAVOK 23/12 Q1019
  • 171200Z AUTO 33011KT 290V350 CAVOK 23/12 Q1019
  • 171130Z AUTO 33011KT 310V010 9999 FEW029 22/13 Q1019

TAF N/A
Pas de NOTAMs connus pour ce terrain.
1 SIGMET publié pour la FIR Paris (LFFF) :
 
Turbulence forte
LFFF SIGMET 7 VALID 171400/171800 LFPW
LFFF PARIS FIR/UIR SEV TURB FCST WI N4630 E00245 - N4715 E00200 - N4715 E00130 - N5000 E00430 - N4930 E00600 - N4900 E00445 - N4845 E00515 - N4645 E00300 - N4630 E00245 FL230/340 MOV E 10KT NC=



MET'MAP, la Météo Aéronautique d'un coup d'oeil ! - Copyright ORBIFLY Décembre 2007 - Disclaimer

ORBIFLY MET'MAP TEAM :

Programmation & Développement : Alexandra Zaïnal
Conception & Développement : Baudouin d'Aumeries
Co-Programmation & Développement : Marc-Olivier Méhu
Soutien technique & logistique : Manuel Goepfert

Contact : metmap@orbifly.com




SOURCES & CREDITS :

   NOAA